Time;durP1;ratioP1;P1;durP2;ratioP2;P2;SDS_P1;SDS_P2;PMS_P1;PMS_P2;Temp;Humidity;BMP_temperature;BMP_pressure;BME280_temperature;BME280_humidity;BME280_pressure;Samples;Min_cycle;Max_cycle;Signal;HPM_P1;HPM_P2
2023/03/04 00:01:29;;;;;;;41.33;20.02;;;;;;;;;;5060674;28;20201;-69
2023/03/04 00:03:58;;;;;;;44.83;22.25;;;;;;;;;;5050845;28;20249;-68
2023/03/04 00:06:26;;;;;;;49.00;20.80;;;;;;;;;;5057676;28;20221;-68
2023/03/04 00:08:55;;;;;;;45.33;21.70;;;;;;;;;;5057532;28;20264;-68
2023/03/04 00:11:45;;;;;;;48.95;21.83;;;;;;;;;;5055968;28;20202;-68
2023/03/04 00:14:14;;;;;;;43.83;21.02;;;;;;;;;;5057908;28;20260;-68
2023/03/04 00:16:42;;;;;;;46.90;22.40;;;;;;;;;;5058300;28;20271;-68
2023/03/04 00:19:12;;;;;;;41.28;22.42;;;;;;;;;;5058768;28;20283;-68
2023/03/04 00:21:40;;;;;;;43.05;22.65;;;;;;;;;;5058235;28;20256;-69
2023/03/04 00:24:08;;;;;;;43.45;23.33;;;;;;;;;;5058791;28;20747;-68
2023/03/04 00:26:36;;;;;;;47.00;21.55;;;;;;;;;;5059250;28;20287;-68
2023/03/04 00:29:04;;;;;;;47.33;22.27;;;;;;;;;;5056991;28;20264;-69
2023/03/04 00:31:32;;;;;;;46.53;23.27;;;;;;;;;;5058340;28;20288;-68
2023/03/04 00:34:01;;;;;;;46.35;24.70;;;;;;;;;;5058810;28;20260;-68
2023/03/04 00:36:30;;;;;;;58.10;26.00;;;;;;;;;;5059277;28;20275;-68
2023/03/04 00:38:58;;;;;;;51.08;24.50;;;;;;;;;;5058073;28;20252;-68
2023/03/04 00:41:27;;;;;;;55.65;24.02;;;;;;;;;;5059735;28;20291;-68
2023/03/04 00:43:55;;;;;;;49.25;23.55;;;;;;;;;;5060551;28;20736;-68
2023/03/04 00:46:23;;;;;;;62.47;23.98;;;;;;;;;;5059547;28;20304;-68
2023/03/04 00:48:53;;;;;;;50.83;24.50;;;;;;;;;;5062144;28;20287;-68
2023/03/04 00:51:21;;;;;;;46.85;24.10;;;;;;;;;;5063571;28;20260;-68
2023/03/04 00:53:51;;;;;;;60.10;25.67;;;;;;;;;;5067144;28;20629;-68
2023/03/04 00:56:19;;;;;;;54.20;24.50;;;;;;;;;;5066785;28;20279;-68
2023/03/04 00:58:47;;;;;;;53.00;23.60;;;;;;;;;;5064399;28;20668;-68
2023/03/04 01:01:16;;;;;;;57.40;26.33;;;;;;;;;;5065082;28;20296;-68
2023/03/04 01:03:44;;;;;;;49.22;24.17;;;;;;;;;;5064836;28;20526;-68
2023/03/04 01:06:13;;;;;;;54.35;23.95;;;;;;;;;;5063481;28;20284;-68
2023/03/04 01:08:41;;;;;;;49.50;23.83;;;;;;;;;;5064622;28;20200;-68
2023/03/04 01:11:11;;;;;;;60.20;24.77;;;;;;;;;;5064847;28;20287;-69
2023/03/04 01:13:39;;;;;;;51.25;23.08;;;;;;;;;;5066029;28;20260;-68
2023/03/04 01:16:09;;;;;;;48.72;24.10;;;;;;;;;;5062987;28;20280;-68
2023/03/04 01:18:38;;;;;;;51.67;23.77;;;;;;;;;;5065602;28;20300;-68
2023/03/04 01:21:06;;;;;;;49.45;22.25;;;;;;;;;;5065212;28;20279;-68
2023/03/04 01:23:34;;;;;;;50.00;23.65;;;;;;;;;;5065546;28;20295;-68
2023/03/04 01:26:03;;;;;;;53.67;24.70;;;;;;;;;;5066788;28;20383;-68
2023/03/04 01:28:34;;;;;;;48.90;23.05;;;;;;;;;;5068475;28;20312;-68
2023/03/04 01:31:02;;;;;;;54.35;23.20;;;;;;;;;;5068519;28;20384;-68
2023/03/04 01:37:42;;;;;;;45.60;21.20;;;;;;;;;;5068257;28;20196;-68
2023/03/04 01:40:48;;;;;;;61.58;25.33;;;;;;;;;;5069656;28;20193;-68
2023/03/04 01:43:20;;;;;;;45.20;22.88;;;;;;;;;;5067672;28;20266;-68
2023/03/04 01:45:50;;;;;;;53.30;23.80;;;;;;;;;;5068023;28;20228;-68
2023/03/04 01:48:20;;;;;;;55.60;23.58;;;;;;;;;;5067689;28;20259;-68
2023/03/04 01:50:49;;;;;;;50.28;23.23;;;;;;;;;;5068160;28;20624;-68
2023/03/04 01:53:20;;;;;;;54.78;24.63;;;;;;;;;;5068626;28;20224;-67
2023/03/04 01:55:48;;;;;;;54.13;25.58;;;;;;;;;;5067136;28;20616;-68
2023/03/04 01:58:16;;;;;;;51.65;22.83;;;;;;;;;;5067009;28;20279;-68
2023/03/04 02:00:45;;;;;;;53.58;23.70;;;;;;;;;;5065207;28;20265;-68
2023/03/04 02:03:15;;;;;;;49.42;22.75;;;;;;;;;;5066208;28;20280;-68
2023/03/04 02:05:44;;;;;;;50.15;22.88;;;;;;;;;;5064760;28;20280;-68
2023/03/04 02:08:14;;;;;;;50.03;23.35;;;;;;;;;;5065791;28;20272;-68
2023/03/04 02:10:43;;;;;;;50.15;23.08;;;;;;;;;;5064126;28;20296;-68
2023/03/04 02:13:12;;;;;;;58.08;22.95;;;;;;;;;;5066688;28;20256;-68
2023/03/04 02:15:40;;;;;;;53.95;23.77;;;;;;;;;;5065749;28;20292;-68
2023/03/04 02:18:17;;;;;;;59.38;25.20;;;;;;;;;;5067122;28;20262;-68
2023/03/04 02:21:29;;;;;;;47.00;21.80;;;;;;;;;;5071149;28;20212;-68
2023/03/04 02:24:06;;;;;;;46.53;22.77;;;;;;;;;;5067768;28;20239;-68
2023/03/04 02:26:40;;;;;;;48.03;24.40;;;;;;;;;;5051099;28;20280;-68
2023/03/04 02:29:10;;;;;;;48.22;23.05;;;;;;;;;;5068104;28;20195;-67
2023/03/04 02:31:40;;;;;;;53.10;22.05;;;;;;;;;;5069181;28;20239;-67
2023/03/04 02:34:09;;;;;;;49.00;22.63;;;;;;;;;;5069837;28;20246;-67
2023/03/04 02:36:37;;;;;;;50.33;24.02;;;;;;;;;;5067366;28;20265;-68
2023/03/04 02:39:06;;;;;;;52.53;23.40;;;;;;;;;;5066948;28;20213;-68
2023/03/04 02:41:35;;;;;;;55.15;25.48;;;;;;;;;;5066771;28;20200;-68
2023/03/04 02:44:05;;;;;;;49.72;22.42;;;;;;;;;;5066782;28;20200;-68
2023/03/04 02:46:33;;;;;;;58.38;24.70;;;;;;;;;;5067571;28;20221;-68
2023/03/04 02:49:01;;;;;;;51.72;23.05;;;;;;;;;;5067201;28;20292;-68
2023/03/04 02:51:29;;;;;;;51.67;22.85;;;;;;;;;;5067033;28;20201;-68
2023/03/04 02:53:57;;;;;;;55.58;22.70;;;;;;;;;;5067302;28;20209;-68
2023/03/04 02:56:25;;;;;;;49.13;22.00;;;;;;;;;;5066777;28;20207;-68
2023/03/04 02:58:53;;;;;;;52.35;24.23;;;;;;;;;;5067472;28;20207;-68
2023/03/04 03:01:23;;;;;;;60.90;24.90;;;;;;;;;;5067242;28;20236;-67
2023/03/04 03:03:51;;;;;;;50.38;20.95;;;;;;;;;;5066644;28;20204;-68
2023/03/04 03:06:30;;;;;;;60.55;22.85;;;;;;;;;;5069401;28;20216;-68
2023/03/04 03:09:24;;;;;;;62.00;24.20;;;;;;;;;;5067509;28;20200;-68
2023/03/04 03:11:58;;;;;;;57.33;23.30;;;;;;;;;;5069329;28;20232;-67
2023/03/04 03:14:26;;;;;;;58.90;23.30;;;;;;;;;;5066955;28;20207;-67
2023/03/04 03:16:56;;;;;;;47.20;23.20;;;;;;;;;;5066487;28;20215;-68
2023/03/04 03:19:24;;;;;;;66.07;23.17;;;;;;;;;;5068640;28;20260;-67
2023/03/04 03:21:54;;;;;;;58.00;24.15;;;;;;;;;;5067800;28;20709;-68
2023/03/04 03:24:35;;;;;;;59.40;25.58;;;;;;;;;;5051534;28;20257;-69
2023/03/04 03:27:12;;;;;;;63.65;24.25;;;;;;;;;;5039899;28;20246;-68
2023/03/04 03:29:40;;;;;;;65.20;24.92;;;;;;;;;;5068367;28;20196;-68
2023/03/04 03:32:10;;;;;;;52.67;23.23;;;;;;;;;;5048636;28;20260;-68
2023/03/04 03:34:38;;;;;;;60.83;23.95;;;;;;;;;;5048680;28;20208;-68
2023/03/04 03:37:07;;;;;;;64.53;24.40;;;;;;;;;;5061056;28;20192;-68
2023/03/04 03:39:35;;;;;;;60.40;22.38;;;;;;;;;;5067979;28;20200;-68
2023/03/04 03:42:03;;;;;;;59.38;23.27;;;;;;;;;;5067577;28;20232;-68
2023/03/04 03:44:31;;;;;;;68.75;25.15;;;;;;;;;;5067945;28;20298;-68
2023/03/04 03:46:59;;;;;;;67.35;25.02;;;;;;;;;;5067615;28;20216;-68
2023/03/04 03:49:28;;;;;;;67.68;24.52;;;;;;;;;;5067481;28;20239;-68
2023/03/04 03:51:56;;;;;;;53.10;25.00;;;;;;;;;;5067830;28;20210;-68
2023/03/04 03:54:24;;;;;;;59.97;26.48;;;;;;;;;;5068021;28;20600;-68
2023/03/04 03:56:52;;;;;;;64.93;26.00;;;;;;;;;;5067601;28;20197;-68
2023/03/04 03:59:20;;;;;;;73.93;25.30;;;;;;;;;;5068020;28;20219;-68
2023/03/04 04:01:49;;;;;;;68.13;25.35;;;;;;;;;;5067002;28;20207;-68
2023/03/04 04:04:17;;;;;;;59.05;23.95;;;;;;;;;;5066711;28;20212;-68
2023/03/04 04:06:46;;;;;;;59.03;24.35;;;;;;;;;;5066911;28;20223;-68
2023/03/04 04:09:14;;;;;;;59.03;24.60;;;;;;;;;;5066204;28;20228;-68
2023/03/04 04:11:49;;;;;;;66.32;27.67;;;;;;;;;;5068568;28;20200;-68
2023/03/04 04:14:17;;;;;;;65.47;24.73;;;;;;;;;;5066359;28;20215;-69
2023/03/04 04:16:45;;;;;;;63.50;27.17;;;;;;;;;;5068953;28;20205;-69
2023/03/04 04:19:19;;;;;;;60.00;22.30;;;;;;;;;;5065941;28;20279;-69
2023/03/04 04:21:49;;;;;;;55.15;22.00;;;;;;;;;;5065041;28;20243;-69
2023/03/04 04:24:17;;;;;;;56.00;23.45;;;;;;;;;;5064242;28;20663;-69
2023/03/04 04:26:45;;;;;;;59.22;23.98;;;;;;;;;;5065214;28;20256;-69
2023/03/04 04:29:15;;;;;;;65.82;26.52;;;;;;;;;;5065371;28;20275;-69
2023/03/04 04:31:43;;;;;;;60.28;24.83;;;;;;;;;;5067279;28;20301;-69
2023/03/04 04:34:11;;;;;;;64.07;25.95;;;;;;;;;;5065469;28;20201;-69
2023/03/04 04:36:39;;;;;;;61.03;22.92;;;;;;;;;;5064303;28;20232;-69
2023/03/04 04:39:09;;;;;;;44.72;20.67;;;;;;;;;;5067462;28;20231;-69
2023/03/04 04:41:38;;;;;;;49.38;23.02;;;;;;;;;;5066963;28;20260;-68
2023/03/04 04:44:07;;;;;;;58.75;23.40;;;;;;;;;;5065891;28;20265;-67
2023/03/04 04:46:35;;;;;;;62.13;23.25;;;;;;;;;;5065403;28;20660;-68
2023/03/04 04:49:04;;;;;;;49.85;22.55;;;;;;;;;;5064173;28;20716;-68
2023/03/04 04:51:32;;;;;;;48.28;22.85;;;;;;;;;;5064579;28;20192;-67
2023/03/04 04:54:01;;;;;;;50.28;22.20;;;;;;;;;;5065153;28;20257;-69
2023/03/04 04:56:34;;;;;;;53.33;22.95;;;;;;;;;;5066542;28;20250;-69
2023/03/04 04:59:22;;;;;;;50.05;24.60;;;;;;;;;;5068114;28;20211;-69
2023/03/04 05:01:54;;;;;;;55.28;22.95;;;;;;;;;;5066750;28;20228;-69
2023/03/04 05:04:23;;;;;;;54.00;23.00;;;;;;;;;;5047618;28;20277;-69
2023/03/04 05:06:52;;;;;;;60.58;24.67;;;;;;;;;;5065314;28;20279;-69
2023/03/04 05:09:21;;;;;;;54.58;22.73;;;;;;;;;;5065871;28;20366;-70
2023/03/04 05:11:51;;;;;;;58.35;22.98;;;;;;;;;;5065510;28;20232;-66
2023/03/04 05:14:20;;;;;;;57.53;22.63;;;;;;;;;;5064931;28;20552;-68
2023/03/04 05:16:53;;;;;;;56.88;22.92;;;;;;;;;;5067859;28;20232;-67
2023/03/04 05:19:23;;;;;;;59.38;23.67;;;;;;;;;;5065080;28;20268;-67
2023/03/04 05:21:55;;;;;;;55.50;21.92;;;;;;;;;;5063439;28;20204;-67
2023/03/04 05:24:23;;;;;;;57.05;23.73;;;;;;;;;;5065876;28;20281;-67
2023/03/04 05:26:52;;;;;;;61.45;23.65;;;;;;;;;;5064844;28;20216;-67
2023/03/04 05:29:20;;;;;;;55.50;22.60;;;;;;;;;;5065772;28;20216;-67
2023/03/04 05:31:48;;;;;;;50.63;21.48;;;;;;;;;;5064906;28;20228;-67
2023/03/04 05:34:16;;;;;;;62.10;24.73;;;;;;;;;;5064477;28;20268;-66
2023/03/04 05:36:45;;;;;;;55.33;23.40;;;;;;;;;;5064842;28;20215;-68
2023/03/04 05:39:31;;;;;;;64.00;22.55;;;;;;;;;;5047422;28;20235;-67
2023/03/04 05:44:57;;;;;;;52.42;20.95;;;;;;;;;;5054885;28;20278;-67
2023/03/04 05:47:25;;;;;;;50.03;20.60;;;;;;;;;;5068766;28;20216;-67
2023/03/04 05:49:54;;;;;;;55.03;21.02;;;;;;;;;;5068734;28;20204;-67
2023/03/04 05:52:22;;;;;;;51.20;21.70;;;;;;;;;;5069914;28;20231;-67
2023/03/04 05:54:50;;;;;;;53.25;23.10;;;;;;;;;;5070262;28;20228;-67
2023/03/04 05:57:19;;;;;;;57.88;22.33;;;;;;;;;;5068728;28;20199;-68
2023/03/04 05:59:50;;;;;;;58.30;23.52;;;;;;;;;;5073217;28;20180;-67
2023/03/04 06:02:33;;;;;;;53.08;20.30;;;;;;;;;;5073657;28;20641;-67
2023/03/04 06:05:12;;;;;;;53.05;22.05;;;;;;;;;;5071776;28;20204;-67
2023/03/04 06:08:14;;;;;;;50.15;21.30;;;;;;;;;;5069107;28;20212;-68
2023/03/04 06:10:42;;;;;;;52.50;23.05;;;;;;;;;;5068956;28;20204;-68
2023/03/04 06:13:12;;;;;;;53.17;21.17;;;;;;;;;;5069320;28;20219;-67
2023/03/04 06:15:49;;;;;;;54.55;21.65;;;;;;;;;;5070796;28;20644;-67
2023/03/04 06:18:18;;;;;;;54.67;22.42;;;;;;;;;;5068529;28;20264;-69
2023/03/04 06:20:46;;;;;;;61.03;22.48;;;;;;;;;;5050146;28;20196;-68
2023/03/04 06:23:17;;;;;;;71.63;24.33;;;;;;;;;;5065831;28;20296;-68
2023/03/04 06:25:52;;;;;;;50.35;22.05;;;;;;;;;;5068900;28;20275;-68
2023/03/04 06:28:29;;;;;;;62.83;23.88;;;;;;;;;;5068945;28;20224;-68
2023/03/04 06:31:02;;;;;;;55.65;22.30;;;;;;;;;;5068291;28;20754;-68
2023/03/04 06:33:33;;;;;;;58.33;23.88;;;;;;;;;;5067536;28;20181;-68
2023/03/04 06:36:01;;;;;;;51.88;21.80;;;;;;;;;;5067599;28;20351;-68
2023/03/04 06:38:29;;;;;;;56.65;22.23;;;;;;;;;;5067046;28;20236;-68
2023/03/04 06:40:57;;;;;;;51.25;21.73;;;;;;;;;;5069064;28;20204;-68
2023/03/04 06:43:26;;;;;;;53.88;23.17;;;;;;;;;;5067962;28;20201;-68
2023/03/04 06:45:54;;;;;;;54.92;22.42;;;;;;;;;;5067425;28;20204;-69
2023/03/04 06:48:22;;;;;;;55.33;24.40;;;;;;;;;;5064524;28;20288;-68
2023/03/04 06:51:08;;;;;;;56.40;24.83;;;;;;;;;;5063083;28;20236;-68
2023/03/04 06:54:26;;;;;;;59.70;22.73;;;;;;;;;;5062343;28;20729;-68
2023/03/04 06:56:54;;;;;;;59.40;23.75;;;;;;;;;;5060949;28;20279;-68
2023/03/04 06:59:24;;;;;;;57.42;24.45;;;;;;;;;;5060993;28;20256;-68
2023/03/04 07:01:52;;;;;;;57.08;21.55;;;;;;;;;;5059735;28;20231;-68
2023/03/04 07:04:21;;;;;;;53.28;22.52;;;;;;;;;;5058476;28;20630;-68
2023/03/04 07:06:49;;;;;;;54.47;22.00;;;;;;;;;;5061126;28;20204;-68
2023/03/04 07:09:17;;;;;;;53.72;23.45;;;;;;;;;;5060929;28;20228;-68
2023/03/04 07:11:45;;;;;;;58.90;25.00;;;;;;;;;;5061436;28;20256;-68
2023/03/04 07:14:13;;;;;;;60.28;24.58;;;;;;;;;;5064684;28;20283;-68
2023/03/04 07:16:43;;;;;;;52.55;23.42;;;;;;;;;;5063060;28;20264;-68
2023/03/04 07:19:11;;;;;;;55.53;24.10;;;;;;;;;;5065474;28;20193;-69
2023/03/04 07:21:39;;;;;;;61.80;25.83;;;;;;;;;;5062774;28;20197;-68
2023/03/04 07:24:07;;;;;;;52.47;22.48;;;;;;;;;;5063776;28;20770;-67
2023/03/04 07:26:36;;;;;;;53.97;22.25;;;;;;;;;;5064392;28;20260;-68
2023/03/04 07:29:05;;;;;;;55.25;21.38;;;;;;;;;;5062959;28;20276;-68
2023/03/04 07:31:34;;;;;;;55.47;23.00;;;;;;;;;;5043350;28;20284;-69
2023/03/04 07:34:05;;;;;;;61.75;24.40;;;;;;;;;;5060770;28;20283;-68
2023/03/04 07:36:33;;;;;;;63.25;25.55;;;;;;;;;;5056875;28;20192;-68
2023/03/04 07:39:02;;;;;;;60.78;24.58;;;;;;;;;;5055243;28;20215;-68
2023/03/04 07:41:31;;;;;;;62.85;26.85;;;;;;;;;;5055445;28;20234;-68
2023/03/04 07:43:59;;;;;;;57.42;24.50;;;;;;;;;;5054730;28;20216;-67
2023/03/04 07:46:27;;;;;;;52.60;24.15;;;;;;;;;;5053358;28;20205;-68
2023/03/04 07:48:56;;;;;;;56.97;26.50;;;;;;;;;;5054391;28;20216;-67
2023/03/04 07:51:26;;;;;;;59.40;23.55;;;;;;;;;;5053554;28;20702;-67
2023/03/04 07:53:58;;;;;;;60.00;23.92;;;;;;;;;;5054382;28;20195;-67
2023/03/04 07:56:27;;;;;;;54.55;23.27;;;;;;;;;;5051921;28;20189;-68
2023/03/04 07:58:56;;;;;;;50.63;23.10;;;;;;;;;;5052866;28;20192;-67
2023/03/04 08:01:25;;;;;;;52.08;24.13;;;;;;;;;;5058065;28;20252;-67
2023/03/04 08:03:53;;;;;;;46.10;22.60;;;;;;;;;;5056623;28;20269;-68
2023/03/04 08:06:22;;;;;;;60.17;26.08;;;;;;;;;;5056557;28;20287;-69
2023/03/04 08:08:56;;;;;;;59.97;26.63;;;;;;;;;;5057814;28;20284;-68
2023/03/04 08:11:25;;;;;;;65.78;25.70;;;;;;;;;;5058442;28;20251;-68
2023/03/04 08:13:53;;;;;;;56.00;23.90;;;;;;;;;;5060798;28;20373;-68
2023/03/04 08:16:23;;;;;;;79.70;29.55;;;;;;;;;;5060676;28;20256;-68
2023/03/04 08:18:52;;;;;;;52.50;24.15;;;;;;;;;;5057131;28;20374;-68
2023/03/04 08:21:21;;;;;;;52.25;22.35;;;;;;;;;;5055711;28;20256;-68
2023/03/04 08:23:51;;;;;;;52.80;23.67;;;;;;;;;;5058243;28;20299;-68
2023/03/04 08:26:20;;;;;;;47.45;22.52;;;;;;;;;;5058748;28;20275;-68
2023/03/04 08:28:49;;;;;;;47.90;23.23;;;;;;;;;;5056915;28;20276;-68
2023/03/04 08:31:17;;;;;;;48.63;23.98;;;;;;;;;;5057600;28;20373;-68
2023/03/04 08:33:46;;;;;;;51.75;23.42;;;;;;;;;;5057054;28;20295;-68
2023/03/04 08:36:14;;;;;;;51.00;24.70;;;;;;;;;;5057059;28;20291;-69
2023/03/04 08:38:43;;;;;;;53.13;24.75;;;;;;;;;;5048487;28;20280;-69
2023/03/04 08:41:14;;;;;;;59.70;26.45;;;;;;;;;;5057995;28;20283;-68
2023/03/04 08:43:44;;;;;;;57.15;24.35;;;;;;;;;;5057526;28;20204;-69
2023/03/04 08:46:12;;;;;;;56.10;24.10;;;;;;;;;;5059084;28;20256;-68
2023/03/04 08:48:41;;;;;;;49.58;25.70;;;;;;;;;;5059106;28;20276;-68
2023/03/04 08:51:10;;;;;;;48.20;24.08;;;;;;;;;;5060078;28;20284;-69
2023/03/04 08:53:38;;;;;;;47.22;24.90;;;;;;;;;;5058732;28;20280;-68
2023/03/04 08:56:07;;;;;;;45.53;22.88;;;;;;;;;;5059456;28;20260;-69
2023/03/04 08:58:37;;;;;;;45.58;24.55;;;;;;;;;;5058301;28;20283;-68
2023/03/04 09:01:08;;;;;;;45.58;23.77;;;;;;;;;;5057121;28;20288;-68
2023/03/04 09:03:36;;;;;;;50.97;25.48;;;;;;;;;;5058977;28;20272;-68
2023/03/04 09:06:04;;;;;;;54.78;27.08;;;;;;;;;;5057341;28;20260;-68
2023/03/04 09:08:33;;;;;;;54.78;25.15;;;;;;;;;;5057194;28;20263;-68
2023/03/04 09:11:01;;;;;;;49.58;24.60;;;;;;;;;;5056368;28;20234;-68
2023/03/04 09:13:29;;;;;;;47.80;24.08;;;;;;;;;;5057236;28;20276;-68
2023/03/04 09:15:59;;;;;;;47.00;24.17;;;;;;;;;;5060486;28;20252;-68
2023/03/04 09:18:28;;;;;;;48.83;25.45;;;;;;;;;;5060700;28;20291;-68
2023/03/04 09:20:56;;;;;;;48.55;24.80;;;;;;;;;;5060338;28;20275;-68
2023/03/04 09:23:24;;;;;;;56.72;30.27;;;;;;;;;;5059260;28;20312;-68
2023/03/04 09:25:53;;;;;;;51.83;26.70;;;;;;;;;;5060234;28;20248;-68
2023/03/04 09:28:21;;;;;;;47.08;25.88;;;;;;;;;;5060509;28;20283;-68
2023/03/04 09:30:49;;;;;;;62.10;27.45;;;;;;;;;;5059503;28;20727;-68
2023/03/04 09:33:19;;;;;;;62.05;28.05;;;;;;;;;;5060285;28;20208;-69
2023/03/04 09:35:48;;;;;;;51.70;27.42;;;;;;;;;;5061099;28;20275;-68
2023/03/04 09:38:17;;;;;;;52.95;27.02;;;;;;;;;;5063132;28;20279;-68
2023/03/04 09:40:46;;;;;;;59.65;28.95;;;;;;;;;;5062383;28;20283;-68
2023/03/04 09:43:20;;;;;;;53.58;28.88;;;;;;;;;;5060209;28;20280;-68
2023/03/04 09:45:50;;;;;;;56.90;27.75;;;;;;;;;;5061771;28;20199;-68
2023/03/04 09:48:23;;;;;;;54.03;26.40;;;;;;;;;;5062608;28;20256;-68
2023/03/04 09:50:58;;;;;;;51.08;26.70;;;;;;;;;;5061295;28;20287;-68
2023/03/04 09:53:29;;;;;;;56.67;27.50;;;;;;;;;;5061440;28;20275;-68
2023/03/04 09:55:57;;;;;;;54.63;27.00;;;;;;;;;;5062876;28;20603;-68
2023/03/04 09:58:31;;;;;;;55.60;27.60;;;;;;;;;;5062435;28;20260;-68
2023/03/04 10:01:02;;;;;;;57.22;29.67;;;;;;;;;;5062722;28;20258;-68
2023/03/04 10:03:36;;;;;;;66.60;32.47;;;;;;;;;;5059729;28;20339;-68
2023/03/04 10:06:06;;;;;;;55.75;29.77;;;;;;;;;;5062982;28;20295;-68
2023/03/04 10:08:45;;;;;;;64.88;29.35;;;;;;;;;;5044297;28;20439;-68
2023/03/04 10:11:15;;;;;;;55.65;29.95;;;;;;;;;;5062588;28;20292;-68
2023/03/04 10:13:51;;;;;;;58.28;29.83;;;;;;;;;;5061643;28;20268;-68
2023/03/04 10:16:22;;;;;;;56.88;29.15;;;;;;;;;;5060938;28;20271;-68
2023/03/04 10:18:53;;;;;;;54.58;28.50;;;;;;;;;;5059769;28;20244;-68
2023/03/04 10:21:24;;;;;;;59.28;29.88;;;;;;;;;;5061285;28;20264;-68
2023/03/04 10:23:53;;;;;;;52.80;27.85;;;;;;;;;;5061145;28;20272;-68
2023/03/04 10:26:23;;;;;;;66.25;27.80;;;;;;;;;;5061341;28;20801;-68
2023/03/04 10:28:51;;;;;;;49.20;27.67;;;;;;;;;;5060905;28;20782;-68
2023/03/04 10:31:22;;;;;;;54.28;26.88;;;;;;;;;;5060081;28;20343;-68
2023/03/04 10:33:52;;;;;;;66.97;27.88;;;;;;;;;;5059595;28;20272;-68
2023/03/04 10:36:27;;;;;;;91.25;31.75;;;;;;;;;;5060607;28;20735;-68
2023/03/04 10:38:55;;;;;;;117.13;34.97;;;;;;;;;;5061423;28;20248;-68
2023/03/04 10:41:25;;;;;;;63.40;30.52;;;;;;;;;;5055322;28;20267;-69
2023/03/04 10:44:01;;;;;;;66.25;28.30;;;;;;;;;;5061922;28;20283;-68
2023/03/04 10:46:29;;;;;;;55.67;24.95;;;;;;;;;;5063636;28;20291;-68
2023/03/04 10:49:00;;;;;;;46.03;24.02;;;;;;;;;;5060052;28;20307;-68
2023/03/04 10:51:29;;;;;;;53.88;23.00;;;;;;;;;;5063521;28;20300;-68
2023/03/04 10:53:59;;;;;;;39.28;21.85;;;;;;;;;;5061418;28;20208;-68
2023/03/04 10:56:35;;;;;;;48.28;22.13;;;;;;;;;;5060653;28;20659;-69
2023/03/04 10:59:22;;;;;;;38.28;20.90;;;;;;;;;;5057968;28;20253;-68
2023/03/04 11:01:51;;;;;;;44.03;20.55;;;;;;;;;;5053579;28;20264;-68
2023/03/04 11:04:24;;;;;;;37.65;19.50;;;;;;;;;;5058518;28;20284;-67
2023/03/04 11:06:52;;;;;;;39.92;20.98;;;;;;;;;;5059310;28;20189;-67
2023/03/04 11:09:22;;;;;;;38.70;19.30;;;;;;;;;;5042465;28;20283;-68
2023/03/04 11:11:51;;;;;;;38.05;20.23;;;;;;;;;;5062573;28;20268;-68
2023/03/04 11:14:22;;;;;;;50.25;24.38;;;;;;;;;;5064131;28;20260;-68
2023/03/04 11:16:55;;;;;;;46.17;21.52;;;;;;;;;;5061732;28;20275;-68
2023/03/04 11:19:26;;;;;;;35.22;19.70;;;;;;;;;;5063018;28;20276;-68
2023/03/04 11:21:54;;;;;;;36.30;19.83;;;;;;;;;;5060746;28;20271;-68
2023/03/04 11:24:25;;;;;;;40.08;18.17;;;;;;;;;;5058708;28;20378;-68
2023/03/04 11:26:55;;;;;;;37.65;18.88;;;;;;;;;;5059121;28;20279;-68
2023/03/04 11:29:25;;;;;;;32.42;17.15;;;;;;;;;;5061001;28;20331;-69
2023/03/04 11:31:56;;;;;;;49.38;21.50;;;;;;;;;;5060305;28;20335;-68
2023/03/04 11:34:29;;;;;;;37.03;18.55;;;;;;;;;;5063124;28;20257;-68
2023/03/04 11:37:02;;;;;;;37.08;17.90;;;;;;;;;;5060793;28;20595;-68
2023/03/04 11:39:32;;;;;;;43.58;17.40;;;;;;;;;;5062970;28;20268;-68
2023/03/04 11:42:03;;;;;;;32.65;16.40;;;;;;;;;;5060745;28;20248;-68
2023/03/04 11:44:31;;;;;;;32.65;16.50;;;;;;;;;;5062029;28;20366;-68
2023/03/04 11:47:18;;;;;;;41.67;18.45;;;;;;;;;;5059116;28;20283;-68
2023/03/04 11:50:06;;;;;;;49.45;24.30;;;;;;;;;;5062118;28;20256;-68
2023/03/04 11:52:45;;;;;;;39.28;18.90;;;;;;;;;;5062915;28;20303;-68
2023/03/04 11:55:21;;;;;;;35.15;17.40;;;;;;;;;;5061291;28;20264;-68
2023/03/04 11:57:55;;;;;;;35.90;17.83;;;;;;;;;;5062480;28;20291;-67
2023/03/04 12:00:31;;;;;;;35.50;15.57;;;;;;;;;;5061835;28;20345;-68
2023/03/04 12:03:12;;;;;;;37.90;17.73;;;;;;;;;;5061401;28;20271;-68
2023/03/04 12:05:44;;;;;;;39.40;18.33;;;;;;;;;;5061382;28;20271;-68
2023/03/04 12:08:27;;;;;;;34.78;18.50;;;;;;;;;;5060835;28;20279;-68
2023/03/04 12:11:03;;;;;;;38.92;17.38;;;;;;;;;;5058919;28;20307;-68
2023/03/04 12:13:47;;;;;;;31.88;17.02;;;;;;;;;;5058451;28;20271;-68
2023/03/04 12:16:20;;;;;;;41.70;20.23;;;;;;;;;;5060315;28;20346;-69
2023/03/04 12:18:55;;;;;;;75.85;44.88;;;;;;;;;;5060092;28;20655;-68
2023/03/04 12:21:31;;;;;;;44.83;18.58;;;;;;;;;;5059826;28;20185;-68
2023/03/04 12:24:18;;;;;;;28.23;16.90;;;;;;;;;;5059793;28;20318;-68
2023/03/04 12:26:50;;;;;;;44.55;19.98;;;;;;;;;;5059680;28;20295;-68
2023/03/04 12:29:22;;;;;;;34.17;17.25;;;;;;;;;;5059919;28;20264;-68
2023/03/04 12:31:52;;;;;;;37.67;18.80;;;;;;;;;;5059686;28;20323;-68
2023/03/04 12:34:30;;;;;;;38.95;19.38;;;;;;;;;;5060422;28;20283;-68
2023/03/04 12:37:06;;;;;;;36.50;17.83;;;;;;;;;;5062086;28;20280;-68
2023/03/04 12:39:37;;;;;;;29.80;16.13;;;;;;;;;;5061247;28;20244;-68
2023/03/04 12:42:11;;;;;;;44.60;19.33;;;;;;;;;;5060545;28;20288;-67
2023/03/04 12:44:43;;;;;;;27.40;15.50;;;;;;;;;;5060592;28;20249;-68
2023/03/04 12:47:18;;;;;;;28.58;18.60;;;;;;;;;;5062072;28;20244;-68
2023/03/04 12:49:51;;;;;;;27.33;16.25;;;;;;;;;;5065657;28;20263;-67
2023/03/04 12:52:23;;;;;;;40.72;17.45;;;;;;;;;;5064077;28;20287;-68
2023/03/04 12:54:55;;;;;;;39.83;17.88;;;;;;;;;;5063687;28;20271;-68
2023/03/04 12:57:25;;;;;;;33.53;17.70;;;;;;;;;;5063577;28;20244;-67
2023/03/04 12:59:59;;;;;;;31.52;16.60;;;;;;;;;;5061951;28;20299;-68
2023/03/04 13:02:33;;;;;;;30.27;17.00;;;;;;;;;;5064799;28;20267;-67
2023/03/04 13:05:04;;;;;;;33.25;15.93;;;;;;;;;;5064299;28;20275;-67
2023/03/04 13:07:40;;;;;;;29.42;17.10;;;;;;;;;;5065170;28;20312;-67
2023/03/04 13:10:11;;;;;;;29.05;14.55;;;;;;;;;;5064321;28;20255;-67
2023/03/04 13:12:48;;;;;;;27.98;13.63;;;;;;;;;;5063808;28;20295;-67
2023/03/04 13:15:28;;;;;;;29.13;14.65;;;;;;;;;;5065358;28;20244;-68
2023/03/04 13:17:57;;;;;;;32.05;16.65;;;;;;;;;;5064677;28;20280;-68
2023/03/04 13:20:32;;;;;;;28.77;14.70;;;;;;;;;;5063699;28;20291;-67
2023/03/04 13:23:03;;;;;;;29.70;15.30;;;;;;;;;;5066049;28;20275;-68
2023/03/04 13:25:33;;;;;;;28.40;15.32;;;;;;;;;;5065712;28;20260;-69
2023/03/04 13:28:15;;;;;;;27.75;14.25;;;;;;;;;;5064954;28;20287;-68
2023/03/04 13:30:44;;;;;;;31.48;15.20;;;;;;;;;;5062961;28;20739;-69
2023/03/04 13:33:31;;;;;;;28.52;16.02;;;;;;;;;;5064814;28;20272;-69
2023/03/04 13:36:02;;;;;;;25.50;15.23;;;;;;;;;;5062435;28;20260;-68
2023/03/04 13:38:33;;;;;;;26.25;14.85;;;;;;;;;;5063995;28;20244;-66
2023/03/04 13:41:12;;;;;;;30.92;15.88;;;;;;;;;;5062629;28;20622;-67
2023/03/04 13:43:45;;;;;;;27.40;14.30;;;;;;;;;;5064929;28;20300;-67
2023/03/04 13:46:46;;;;;;;24.63;14.10;;;;;;;;;;5064064;28;20639;-67
2023/03/04 13:49:20;;;;;;;29.13;14.88;;;;;;;;;;5022793;28;20273;-67
2023/03/04 13:51:49;;;;;;;29.05;14.27;;;;;;;;;;5021757;28;20209;-68
2023/03/04 13:54:22;;;;;;;27.25;13.80;;;;;;;;;;5041639;28;20335;-68
2023/03/04 13:57:11;;;;;;;27.85;14.57;;;;;;;;;;5062284;28;20248;-68
2023/03/04 13:59:42;;;;;;;27.90;15.95;;;;;;;;;;5062216;28;20253;-68
2023/03/04 14:02:15;;;;;;;26.25;15.45;;;;;;;;;;5063951;28;20263;-68
2023/03/04 14:04:45;;;;;;;28.75;14.43;;;;;;;;;;5061382;28;20185;-67
2023/03/04 14:07:21;;;;;;;24.33;12.98;;;;;;;;;;5063868;28;20555;-68
2023/03/04 14:09:57;;;;;;;25.63;12.52;;;;;;;;;;5063482;28;20343;-68
2023/03/04 14:12:26;;;;;;;20.73;11.52;;;;;;;;;;5061332;28;20295;-68
2023/03/04 14:14:57;;;;;;;18.73;12.65;;;;;;;;;;5060818;28;20287;-68
2023/03/04 14:17:27;;;;;;;25.42;13.07;;;;;;;;;;5061246;28;20253;-68
2023/03/04 14:19:56;;;;;;;28.23;14.07;;;;;;;;;;5061969;28;20276;-69
2023/03/04 14:22:25;;;;;;;22.55;14.00;;;;;;;;;;5063223;28;20997;-68
2023/03/04 14:24:57;;;;;;;23.42;12.93;;;;;;;;;;5062066;28;20703;-68
2023/03/04 14:27:25;;;;;;;25.83;14.05;;;;;;;;;;5062970;28;20287;-67
2023/03/04 14:29:58;;;;;;;25.60;14.50;;;;;;;;;;5063864;28;20283;-68
2023/03/04 14:32:27;;;;;;;25.80;12.75;;;;;;;;;;5062431;28;20276;-68
2023/03/04 14:34:58;;;;;;;24.83;13.85;;;;;;;;;;5060003;28;20272;-68
2023/03/04 14:37:27;;;;;;;32.58;15.20;;;;;;;;;;5062133;28;20347;-68
2023/03/04 14:39:58;;;;;;;21.83;13.38;;;;;;;;;;5062214;28;20283;-68
2023/03/04 14:42:27;;;;;;;26.13;15.50;;;;;;;;;;5061822;28;20236;-68
2023/03/04 14:44:57;;;;;;;26.00;13.70;;;;;;;;;;5057817;28;20766;-68
2023/03/04 14:47:31;;;;;;;24.73;13.60;;;;;;;;;;5057178;28;20287;-68